Main page
METAR-TAF:

METAR-TAF

Airports :

Thessaloniki International Airport Macedonia

Thessaloniki, Greece

latitude: 40-31N, longitude: 022-58E, elevation: 8 m

Current weather observation

The report was made 28 minutes ago, at 16:20 UTC
Wind 3 kt from variable directions
Temperature 20°C
Humidity 56%
Pressure 1017 hPa
Visibility 10 km or more
Few clouds at a height of 2500 ft

METAR: LGTS 171620Z VRB03KT 9999 FEW025 20/11 Q1017 NOSIG

Time: 19:48 (16:48 UTC)

Forecast

The report was made 5 hours and 8 minutes ago, at 11:40 UTC
Forecast valid from 17 at 12 UTC to 18 at 12 UTC
Wind 10 kt from the South
Visibility 10 km or more
Few clouds at a height of 3000 ft
Becoming
from 17 at 20 UTC to 17 at 22 UTC
Wind 3 kt from variable directions

TAF: LGTS 171140Z 1712/1812 17010KT 9999 FEW030 BECMG 1720/1722 VRB03KT

Weather observations and forecasts of more than 4000 airports (METAR and TAF reports).

The available stations are represented by yellow and red dots on the map.

Hover mouse over dot to see the name of the station.

Then click to see weather observations and forecasts.

To change the map : click on the green buttons with a black cross to zoom in, on the green button with a dash to zoom out, or on the green arrows for adjacent maps.


METAR-TAF: